Time;durP1;ratioP1;P1;durP2;ratioP2;P2;SDS_P1;SDS_P2;PMS_P1;PMS_P2;Temp;Humidity;BMP_temperature;BMP_pressure;BME280_temperature;BME280_humidity;BME280_pressure;Samples;Min_cycle;Max_cycle;Signal;HPM_P1;HPM_P2
2023/04/07 00:01:29;;;;;;;9.70;8.57;;;;;;;7.08;36.22;99150.09;5085136;28;20105;-70
2023/04/07 00:03:56;;;;;;;9.85;8.38;;;;;;;7.08;36.27;99144.81;5085390;28;20032;-70
2023/04/07 00:06:22;;;;;;;10.07;8.32;;;;;;;7.06;36.30;99152.78;5085229;28;20051;-71
2023/04/07 00:08:49;;;;;;;8.98;8.02;;;;;;;6.85;36.25;99108.94;5086574;28;20040;-70
2023/04/07 00:11:17;;;;;;;11.88;8.57;;;;;;;7.04;36.36;99151.16;5089114;28;20036;-70
2023/04/07 00:13:44;;;;;;;9.90;7.68;;;;;;;7.02;36.09;99147.72;5088866;28;20054;-70
2023/04/07 00:16:11;;;;;;;10.23;8.55;;;;;;;6.05;36.35;98997.44;5089136;28;20045;-69
2023/04/07 00:18:37;;;;;;;8.93;7.65;;;;;;;7.00;36.33;99149.56;5088789;28;20048;-70
2023/04/07 00:21:04;;;;;;;10.32;7.85;;;;;;;6.99;36.40;99151.34;5088634;28;20052;-70
2023/04/07 00:23:31;;;;;;;10.27;9.18;;;;;;;6.98;36.24;99146.16;5088836;28;20086;-70
2023/04/07 00:25:58;;;;;;;8.45;7.55;;;;;;;6.95;36.50;99138.38;5088527;28;20036;-70
2023/04/07 00:28:26;;;;;;;9.52;7.38;;;;;;;6.97;36.39;99133.91;5089013;28;20231;-70
2023/04/07 00:30:52;;;;;;;12.68;8.75;;;;;;;6.95;36.29;99143.66;5088423;28;20043;-70
2023/04/07 00:33:19;;;;;;;9.65;8.25;;;;;;;6.67;36.34;99093.91;5088366;28;20108;-70
2023/04/07 00:35:46;;;;;;;10.43;8.80;;;;;;;6.89;36.42;99136.88;5088596;28;20052;-70
2023/04/07 00:38:13;;;;;;;9.88;8.50;;;;;;;6.88;36.56;99144.84;5088569;28;20040;-70
2023/04/07 00:40:39;;;;;;;9.60;8.00;;;;;;;6.86;36.60;99144.06;5088730;28;20048;-70
2023/04/07 00:43:06;;;;;;;10.07;8.93;;;;;;;6.83;36.60;99139.78;5088101;28;20048;-70
2023/04/07 00:45:34;;;;;;;9.45;8.45;;;;;;;6.82;36.60;99139.84;5087820;28;20197;-72
2023/04/07 00:48:01;;;;;;;9.05;7.50;;;;;;;6.79;36.61;99138.16;5088118;28;20047;-70
2023/04/07 00:50:28;;;;;;;10.10;8.40;;;;;;;6.51;36.79;99083.19;5088723;28;20240;-70
2023/04/07 00:52:56;;;;;;;9.80;7.75;;;;;;;6.56;36.69;99096.16;5089014;28;20040;-70
2023/04/07 00:55:22;;;;;;;10.60;9.23;;;;;;;6.73;36.76;99130.53;5088217;28;20033;-71
2023/04/07 00:57:50;;;;;;;9.52;8.27;;;;;;;6.29;36.88;99053.44;5088233;28;20200;-70
2023/04/07 01:00:17;;;;;;;10.80;8.50;;;;;;;6.70;36.86;99123.63;5088225;28;20063;-71
2023/04/07 01:02:56;;;;;;;10.80;8.43;;;;;;;6.14;37.20;99038.31;5088407;28;20045;-70
2023/04/07 01:05:30;;;;;;;9.40;8.45;;;;;;;6.68;36.96;99117.56;5088164;28;20052;-71
2023/04/07 01:08:04;;;;;;;9.02;7.90;;;;;;;6.62;37.17;99115.19;5087974;28;20122;-70
2023/04/07 01:10:37;;;;;;;9.32;7.75;;;;;;;6.45;37.07;99083.44;5087988;28;20281;-70
2023/04/07 01:13:08;;;;;;;10.00;8.55;;;;;;;5.89;37.00;98985.88;5087648;28;20346;-70
2023/04/07 01:15:36;;;;;;;11.27;8.75;;;;;;;6.67;36.91;99110.56;5087893;28;20351;-70
2023/04/07 01:18:13;;;;;;;10.23;7.97;;;;;;;6.49;37.35;99084.19;5087524;28;20082;-70
2023/04/07 01:20:42;;;;;;;11.20;8.35;;;;;;;6.65;36.81;99107.16;5087169;28;20044;-70
2023/04/07 01:23:14;;;;;;;9.75;8.40;;;;;;;6.65;36.90;99111.56;5087915;28;20235;-70
2023/04/07 01:26:07;;;;;;;9.55;8.55;;;;;;;6.63;37.70;99109.00;5087531;28;20045;-70
2023/04/07 01:29:11;;;;;;;9.25;7.88;;;;;;;6.60;37.50;99109.13;5081036;28;20048;-70
2023/04/07 01:31:41;;;;;;;9.73;8.30;;;;;;;6.56;37.10;99101.44;5087414;28;20064;-70
2023/04/07 01:34:10;;;;;;;10.05;7.85;;;;;;;5.78;37.01;98992.44;5087221;28;20082;-70
2023/04/07 01:36:37;;;;;;;9.70;7.68;;;;;;;5.60;36.89;98952.91;5087157;28;20208;-69
2023/04/07 01:39:06;;;;;;;8.80;7.35;;;;;;;6.56;36.85;99101.44;5087673;28;20197;-70
2023/04/07 01:41:33;;;;;;;10.75;7.93;;;;;;;6.52;37.04;99098.06;5087402;28;20173;-70
2023/04/07 01:44:01;;;;;;;10.95;8.82;;;;;;;6.52;37.11;99099.84;5087407;28;20304;-70
2023/04/07 01:46:28;;;;;;;9.27;8.18;;;;;;;6.51;37.11;99106.03;5087524;28;20048;-70
2023/04/07 01:48:57;;;;;;;10.18;7.97;;;;;;;6.49;37.25;99102.59;5087801;28;20142;-70
2023/04/07 01:51:26;;;;;;;9.95;8.25;;;;;;;6.50;37.23;99099.06;5087129;28;20048;-70
2023/04/07 01:53:54;;;;;;;10.05;7.88;;;;;;;6.51;37.08;99099.00;5087197;28;20358;-70
2023/04/07 01:56:20;;;;;;;9.32;7.50;;;;;;;6.28;37.09;99064.88;5087278;28;20045;-69
2023/04/07 01:58:47;;;;;;;10.85;8.52;;;;;;;6.50;37.09;99091.16;5087244;28;20045;-69
2023/04/07 02:01:14;;;;;;;10.48;8.32;;;;;;;6.48;37.03;99099.13;5086759;28;20033;-69
2023/04/07 02:03:46;;;;;;;11.02;8.65;;;;;;;6.35;37.61;99075.09;5087174;28;20055;-69
2023/04/07 02:06:20;;;;;;;12.10;8.35;;;;;;;6.44;37.67;99100.16;5086627;28;20059;-69
2023/04/07 02:08:50;;;;;;;10.02;8.27;;;;;;;6.45;37.43;99095.75;5086876;28;20318;-70
2023/04/07 02:11:18;;;;;;;9.05;7.85;;;;;;;6.47;37.29;99096.56;5086485;28;20107;-70
2023/04/07 02:13:46;;;;;;;10.00;7.85;;;;;;;5.29;37.29;98898.09;5086764;28;20051;-69
2023/04/07 02:16:13;;;;;;;11.13;8.57;;;;;;;6.42;37.32;99091.47;5086990;28;20075;-69
2023/04/07 02:18:41;;;;;;;9.23;8.23;;;;;;;6.41;37.45;99089.78;5086114;28;20049;-69
2023/04/07 02:21:10;;;;;;;10.48;8.38;;;;;;;6.41;37.41;99093.25;5086555;28;20060;-70
2023/04/07 02:23:38;;;;;;;9.95;8.18;;;;;;;6.39;37.52;99083.72;5086886;28;20040;-69
2023/04/07 02:26:05;;;;;;;10.30;7.43;;;;;;;6.37;37.40;99086.41;5086551;28;20052;-69
2023/04/07 02:28:31;;;;;;;9.00;7.55;;;;;;;6.37;37.50;99088.19;5086722;28;20044;-69
2023/04/07 02:30:58;;;;;;;10.30;8.55;;;;;;;6.35;37.45;99087.41;5086065;28;20036;-69
2023/04/07 02:33:25;;;;;;;9.43;8.25;;;;;;;6.32;37.68;99088.38;5086297;28;20052;-69
2023/04/07 02:35:52;;;;;;;10.50;9.05;;;;;;;6.32;37.74;99088.38;5086610;28;20044;-70
2023/04/07 02:38:18;;;;;;;10.05;7.95;;;;;;;6.32;37.65;99087.53;5086265;28;20102;-70
2023/04/07 02:40:46;;;;;;;11.23;8.57;;;;;;;6.13;37.82;99053.22;5086418;28;20048;-70
2023/04/07 02:43:15;;;;;;;11.93;9.23;;;;;;;6.30;37.71;99087.59;5085756;28;20056;-70
2023/04/07 02:45:42;;;;;;;12.20;9.07;;;;;;;6.30;37.77;99081.47;5086113;28;20067;-70
2023/04/07 02:48:08;;;;;;;10.85;8.98;;;;;;;6.29;37.78;99085.03;5085833;28;20063;-70
2023/04/07 02:50:35;;;;;;;12.68;9.02;;;;;;;6.27;37.77;99079.81;5085791;28;20044;-70
2023/04/07 02:53:01;;;;;;;9.50;8.27;;;;;;;6.28;37.77;99080.69;5086006;28;20248;-70
2023/04/07 02:55:28;;;;;;;10.07;7.78;;;;;;;6.28;37.70;99076.28;5086013;28;20040;-70
2023/04/07 02:57:56;;;;;;;12.73;8.73;;;;;;;6.28;37.78;99064.88;5085945;28;20311;-70
2023/04/07 03:00:23;;;;;;;9.98;8.02;;;;;;;6.26;37.75;99072.00;5085639;28;20106;-70
2023/04/07 03:02:50;;;;;;;9.50;8.50;;;;;;;6.24;37.78;99065.94;5085641;28;20165;-70
2023/04/07 03:05:16;;;;;;;10.27;8.50;;;;;;;6.25;37.67;99070.28;5085565;28;20116;-70
2023/04/07 03:07:43;;;;;;;9.25;8.15;;;;;;;5.95;37.82;99020.66;5085524;28;20048;-70
2023/04/07 03:10:10;;;;;;;10.10;8.23;;;;;;;6.21;37.82;99066.94;5086038;28;20075;-70
2023/04/07 03:12:37;;;;;;;10.30;8.57;;;;;;;6.18;37.80;99064.41;5086648;28;20059;-70
2023/04/07 03:15:06;;;;;;;11.63;8.75;;;;;;;6.15;38.08;99069.81;5085813;28;20097;-70
2023/04/07 03:17:33;;;;;;;10.55;9.10;;;;;;;6.16;37.98;99071.53;5085547;28;20059;-70
2023/04/07 03:20:00;;;;;;;10.73;8.63;;;;;;;6.13;38.00;99066.38;5085883;28;20040;-71
2023/04/07 03:22:27;;;;;;;13.35;9.70;;;;;;;5.05;37.97;98900.81;5085831;28;20292;-71
2023/04/07 03:24:53;;;;;;;9.77;8.32;;;;;;;5.86;38.00;99021.03;5085879;28;20044;-71
2023/04/07 03:27:20;;;;;;;11.43;8.95;;;;;;;6.09;37.95;99068.28;5085740;28;20059;-70
2023/04/07 03:29:46;;;;;;;10.93;8.55;;;;;;;6.09;37.91;99064.81;5085480;28;20044;-70
2023/04/07 03:32:14;;;;;;;11.27;8.73;;;;;;;6.07;38.12;99071.91;5085534;28;20049;-70
2023/04/07 03:34:41;;;;;;;11.27;8.43;;;;;;;6.03;38.14;99055.38;5085482;28;20078;-70
2023/04/07 03:37:08;;;;;;;9.60;8.50;;;;;;;5.86;38.19;99031.56;5085759;28;20040;-70
2023/04/07 03:39:36;;;;;;;10.88;8.70;;;;;;;6.04;38.00;99057.09;5085166;28;20044;-70
2023/04/07 03:42:03;;;;;;;10.80;8.48;;;;;;;6.04;38.14;99062.38;5085169;28;20055;-70
2023/04/07 03:44:29;;;;;;;11.00;8.50;;;;;;;6.00;38.22;99066.03;5089418;28;20045;-70
2023/04/07 03:46:56;;;;;;;10.05;8.60;;;;;;;5.71;38.17;99011.16;5089283;28;20078;-70
2023/04/07 03:49:24;;;;;;;10.70;9.13;;;;;;;5.97;38.22;99066.16;5089267;28;20059;-70
2023/04/07 03:51:51;;;;;;;11.40;8.75;;;;;;;5.96;38.31;99066.22;5089686;28;20089;-70
2023/04/07 03:54:18;;;;;;;12.02;8.55;;;;;;;5.95;38.41;99061.88;5089711;28;20052;-70
2023/04/07 03:56:45;;;;;;;11.10;9.05;;;;;;;5.95;38.39;99069.78;5089008;28;20041;-70
2023/04/07 03:59:11;;;;;;;11.30;8.95;;;;;;;5.95;38.55;99064.53;5089514;28;20184;-70
2023/04/07 04:01:38;;;;;;;9.63;8.57;;;;;;;5.60;38.50;99000.22;5089411;28;20051;-70
2023/04/07 04:04:05;;;;;;;10.50;7.60;;;;;;;5.94;38.46;99061.03;5089687;28;20044;-70
2023/04/07 04:06:33;;;;;;;9.35;8.35;;;;;;;5.94;38.60;99060.19;5088194;28;20050;-69
2023/04/07 04:09:00;;;;;;;10.25;7.88;;;;;;;5.94;38.42;99065.44;5089359;28;20044;-70
2023/04/07 04:11:27;;;;;;;10.43;8.75;;;;;;;5.96;38.46;99068.84;5089571;28;20037;-70
2023/04/07 04:13:53;;;;;;;11.40;8.75;;;;;;;5.97;38.50;99063.53;5089541;28;20082;-70
2023/04/07 04:16:20;;;;;;;14.10;9.68;;;;;;;5.95;38.46;99068.00;5089474;28;20048;-70
2023/04/07 04:18:47;;;;;;;9.95;8.75;;;;;;;5.94;38.53;99060.19;5089157;28;20098;-70
2023/04/07 04:21:13;;;;;;;12.57;9.00;;;;;;;5.94;38.39;99065.44;5089231;28;20058;-70
2023/04/07 04:23:41;;;;;;;12.45;8.88;;;;;;;5.93;38.55;99061.09;5088837;28;20051;-70
2023/04/07 04:26:08;;;;;;;12.90;9.50;;;;;;;5.93;38.71;99059.31;5089263;28;20044;-70
2023/04/07 04:28:35;;;;;;;10.45;8.38;;;;;;;5.93;38.67;99064.59;5088912;28;20055;-70
2023/04/07 04:31:01;;;;;;;12.32;8.32;;;;;;;5.92;38.66;99049.72;5088944;28;20037;-70
2023/04/07 04:33:28;;;;;;;13.30;9.35;;;;;;;5.93;38.71;99058.47;5088595;28;20200;-70
2023/04/07 04:35:55;;;;;;;9.25;8.20;;;;;;;5.92;38.71;99054.97;5089129;28;20086;-70
2023/04/07 04:38:22;;;;;;;12.43;9.05;;;;;;;5.93;38.60;99058.47;5088772;28;20036;-70
2023/04/07 04:40:50;;;;;;;10.45;8.52;;;;;;;5.92;38.89;99054.97;5088499;28;20040;-70
2023/04/07 04:43:16;;;;;;;14.57;9.52;;;;;;;5.67;38.69;99006.94;5087373;28;20052;-70
2023/04/07 04:45:43;;;;;;;11.38;8.93;;;;;;;5.70;38.71;99012.06;5088016;28;20075;-70
2023/04/07 04:48:10;;;;;;;10.15;9.07;;;;;;;5.93;38.68;99055.84;5088915;28;20079;-70
2023/04/07 04:50:37;;;;;;;10.32;8.95;;;;;;;5.93;38.83;99050.56;5088280;28;20037;-70
2023/04/07 04:53:04;;;;;;;13.20;8.98;;;;;;;5.93;38.87;99056.69;5088381;28;20101;-70
2023/04/07 04:55:30;;;;;;;10.23;8.27;;;;;;;5.94;38.93;99060.19;5087854;28;20051;-70
2023/04/07 04:57:58;;;;;;;10.45;8.57;;;;;;;5.93;38.77;99055.84;5088354;28;20044;-70
2023/04/07 05:00:25;;;;;;;10.73;8.55;;;;;;;5.95;38.69;99056.63;5088120;28;20036;-70
2023/04/07 05:02:52;;;;;;;13.38;9.70;;;;;;;5.95;38.78;99056.63;5088020;28;20204;-70
2023/04/07 05:05:18;;;;;;;11.23;9.18;;;;;;;5.97;38.86;99068.81;5087480;28;20040;-70
2023/04/07 05:07:45;;;;;;;12.48;8.90;;;;;;;5.98;38.82;99059.13;5088275;28;20203;-70
2023/04/07 05:10:12;;;;;;;12.35;9.15;;;;;;;5.97;38.90;99065.31;5088536;28;20046;-70
2023/04/07 05:12:39;;;;;;;10.52;8.25;;;;;;;5.97;38.98;99065.31;5087899;28;20185;-70
2023/04/07 05:15:08;;;;;;;12.40;9.23;;;;;;;5.98;38.85;99065.25;5088404;28;20292;-70
2023/04/07 05:17:35;;;;;;;13.40;8.85;;;;;;;5.99;38.93;99074.00;5088109;28;20301;-70
2023/04/07 05:20:02;;;;;;;13.02;9.55;;;;;;;6.00;38.81;99071.31;5088074;28;20044;-70
2023/04/07 05:22:29;;;;;;;11.05;8.70;;;;;;;6.01;38.89;99073.00;5088206;28;20044;-70
2023/04/07 05:24:56;;;;;;;11.50;8.13;;;;;;;6.05;38.88;99073.75;5088208;28;20075;-70
2023/04/07 05:27:22;;;;;;;11.88;8.88;;;;;;;6.02;38.76;99074.72;5087754;28;20308;-70
2023/04/07 05:29:49;;;;;;;11.13;8.73;;;;;;;6.02;38.82;99074.72;5086657;28;20058;-70
2023/04/07 05:32:19;;;;;;;10.90;8.38;;;;;;;6.01;39.02;99073.00;5088071;28;20032;-70
2023/04/07 05:34:46;;;;;;;10.57;8.50;;;;;;;6.03;38.78;99068.53;5088072;28;20103;-70
2023/04/07 05:37:12;;;;;;;14.55;9.75;;;;;;;6.03;38.90;99068.53;5087964;28;20052;-70
2023/04/07 05:39:39;;;;;;;11.43;9.07;;;;;;;6.05;38.87;99068.47;5087602;28;20292;-70
2023/04/07 05:42:06;;;;;;;15.25;9.80;;;;;;;5.89;38.96;99041.94;5087208;28;20055;-70
2023/04/07 05:44:33;;;;;;;11.98;9.05;;;;;;;6.12;38.82;99063.81;5087873;28;20115;-70
2023/04/07 05:47:00;;;;;;;9.63;8.60;;;;;;;6.12;38.74;99069.09;5087515;28;20195;-70
2023/04/07 05:49:28;;;;;;;13.18;8.68;;;;;;;6.13;38.95;99065.53;5087433;28;20248;-70
2023/04/07 05:51:54;;;;;;;11.80;9.32;;;;;;;6.15;38.91;99071.59;5087442;28;20319;-70
2023/04/07 05:54:21;;;;;;;12.50;9.30;;;;;;;6.16;38.81;99068.91;5087367;28;20044;-70
2023/04/07 05:56:48;;;;;;;9.65;8.07;;;;;;;6.16;38.89;99076.78;5086922;28;20044;-70
2023/04/07 05:59:14;;;;;;;10.00;8.25;;;;;;;6.17;38.69;99067.13;5087128;28;20086;-70
2023/04/07 06:01:42;;;;;;;11.73;8.90;;;;;;;6.18;38.77;99072.31;5086868;28;20107;-70
2023/04/07 06:04:09;;;;;;;10.20;8.45;;;;;;;6.19;38.89;99075.81;5087075;28;20036;-70
2023/04/07 06:06:37;;;;;;;10.20;9.00;;;;;;;6.21;38.90;99073.97;5086327;28;20056;-70
2023/04/07 06:09:04;;;;;;;16.17;8.90;;;;;;;6.21;38.88;99074.81;5086940;28;20043;-70
2023/04/07 06:11:30;;;;;;;11.52;8.82;;;;;;;6.22;38.94;99076.53;5086605;28;20055;-70
2023/04/07 06:13:57;;;;;;;10.63;8.70;;;;;;;6.02;38.81;99037.91;5086645;28;20048;-69
2023/04/07 06:16:24;;;;;;;12.77;8.93;;;;;;;6.02;38.83;99032.63;5087099;28;20040;-69
2023/04/07 06:18:51;;;;;;;12.10;9.00;;;;;;;5.81;38.90;98987.97;5086866;28;20060;-70
2023/04/07 06:21:18;;;;;;;10.32;8.73;;;;;;;6.25;38.93;99068.50;5087037;28;20068;-69
2023/04/07 06:23:46;;;;;;;9.77;7.80;;;;;;;5.94;38.86;99018.09;5086724;28;20249;-70
2023/04/07 06:26:12;;;;;;;10.88;9.20;;;;;;;6.26;38.97;99067.59;5086431;28;20045;-70
2023/04/07 06:28:39;;;;;;;10.70;8.63;;;;;;;6.28;38.98;99075.41;5086917;28;20052;-70
2023/04/07 06:31:07;;;;;;;9.75;7.20;;;;;;;6.30;38.76;99076.22;5086263;28;20304;-69
2023/04/07 06:33:34;;;;;;;11.90;8.57;;;;;;;6.31;38.86;99081.41;5086536;28;20204;-70
2023/04/07 06:36:01;;;;;;;13.45;8.90;;;;;;;6.31;38.93;99076.16;5086190;28;20048;-70
2023/04/07 06:38:27;;;;;;;10.63;9.07;;;;;;;6.34;38.90;99083.91;5086199;28;20036;-70
2023/04/07 06:40:55;;;;;;;10.30;8.25;;;;;;;6.34;38.91;99083.91;5086142;28;20064;-70
2023/04/07 06:43:22;;;;;;;13.00;7.82;;;;;;;6.26;38.86;99066.72;5085962;28;20056;-70
2023/04/07 06:45:49;;;;;;;12.05;9.60;;;;;;;6.33;38.81;99089.25;5085906;28;20044;-70
2023/04/07 06:48:15;;;;;;;10.25;8.40;;;;;;;6.33;38.91;99086.59;5086471;28;20141;-70
2023/04/07 06:50:46;;;;;;;10.15;8.07;;;;;;;6.13;39.22;99052.38;5085924;28;20052;-70
2023/04/07 06:53:13;;;;;;;9.25;7.97;;;;;;;6.38;39.00;99084.63;5085878;28;20040;-70
2023/04/07 06:55:39;;;;;;;11.35;8.10;;;;;;;6.40;38.93;99074.91;5085933;28;20289;-70
2023/04/07 06:58:07;;;;;;;13.35;9.20;;;;;;;6.23;39.06;99043.19;5086178;28;20098;-70
2023/04/07 07:00:34;;;;;;;11.18;8.80;;;;;;;6.45;39.08;99078.19;5085288;28;20051;-70
2023/04/07 07:03:02;;;;;;;10.93;7.60;;;;;;;6.51;39.06;99080.56;5086321;28;20047;-70
2023/04/07 07:05:28;;;;;;;10.48;7.90;;;;;;;5.92;38.97;98970.81;5086317;28;20105;-70
2023/04/07 07:07:55;;;;;;;10.48;7.97;;;;;;;6.61;38.91;99079.25;5085769;28;20046;-70
2023/04/07 07:10:22;;;;;;;12.50;9.65;;;;;;;6.69;38.98;99078.91;5086278;28;20041;-70
2023/04/07 07:12:49;;;;;;;10.75;8.52;;;;;;;6.75;38.83;99079.50;5085755;28;20078;-70
2023/04/07 07:15:17;;;;;;;12.63;8.55;;;;;;;6.82;38.88;99072.22;5085737;28;20157;-70
2023/04/07 07:17:44;;;;;;;10.45;8.38;;;;;;;4.87;38.71;98741.34;5084493;28;20047;-70
2023/04/07 07:20:11;;;;;;;10.75;8.80;;;;;;;6.93;38.62;99077.84;5085806;28;20044;-69
2023/04/07 07:22:38;;;;;;;12.23;9.77;;;;;;;6.95;38.76;99078.63;5085857;28;20067;-71
2023/04/07 07:25:05;;;;;;;11.50;9.27;;;;;;;6.98;38.52;99085.56;5085719;28;20339;-70
2023/04/07 07:27:32;;;;;;;11.85;9.90;;;;;;;6.83;38.65;99057.25;5086064;28;20101;-70
2023/04/07 07:29:58;;;;;;;11.40;8.50;;;;;;;7.03;38.71;99081.78;5085627;28;20051;-70
2023/04/07 07:32:26;;;;;;;12.25;8.45;;;;;;;6.92;38.65;99051.56;5085196;28;20036;-70
2023/04/07 07:34:53;;;;;;;13.55;8.75;;;;;;;6.94;38.54;99044.47;5085341;28;20048;-70
2023/04/07 07:37:20;;;;;;;11.68;8.65;;;;;;;7.19;38.46;99087.22;5085613;28;20327;-70
2023/04/07 07:39:47;;;;;;;11.65;8.52;;;;;;;7.24;38.52;99079.97;5085639;28;20048;-70
2023/04/07 07:42:13;;;;;;;9.75;7.95;;;;;;;7.27;38.63;99095.63;5085079;28;20064;-70
2023/04/07 07:44:40;;;;;;;10.82;8.35;;;;;;;7.31;38.61;99091.06;5085547;28;20090;-70
2023/04/07 07:47:07;;;;;;;11.25;8.60;;;;;;;7.36;38.62;99089.97;5085714;28;20051;-70
2023/04/07 07:49:35;;;;;;;9.77;8.20;;;;;;;7.20;38.51;99061.72;5085472;28;20128;-70
2023/04/07 07:52:02;;;;;;;13.38;9.35;;;;;;;7.40;38.54;99093.31;5084790;28;20040;-70
2023/04/07 07:54:29;;;;;;;13.10;9.43;;;;;;;7.43;38.53;99090.53;5085715;28;20036;-70
2023/04/07 07:56:56;;;;;;;11.70;8.20;;;;;;;7.48;38.41;99092.97;5085533;28;20048;-70
2023/04/07 07:59:22;;;;;;;9.32;8.30;;;;;;;6.93;38.54;99012.00;5085536;28;20306;-70
2023/04/07 08:01:49;;;;;;;11.20;8.10;;;;;;;7.52;38.56;99094.53;5085683;28;20047;-70
2023/04/07 08:04:16;;;;;;;11.88;8.55;;;;;;;7.52;38.63;99090.09;5084962;28;20062;-70
2023/04/07 08:06:44;;;;;;;10.77;8.45;;;;;;;7.54;38.56;99088.25;5085661;28;20040;-70
2023/04/07 08:09:10;;;;;;;13.05;9.18;;;;;;;7.38;38.38;99058.25;5085562;28;20044;-70
2023/04/07 08:11:37;;;;;;;12.35;9.15;;;;;;;7.63;38.53;99098.38;5085012;28;20044;-70
2023/04/07 08:14:04;;;;;;;12.63;9.07;;;;;;;7.42;38.51;99056.34;5085132;28;20227;-70
2023/04/07 08:16:31;;;;;;;15.63;9.20;;;;;;;7.30;38.48;99029.59;5084620;28;20032;-70
2023/04/07 08:18:57;;;;;;;10.73;9.18;;;;;;;7.71;38.54;99090.09;5085615;28;20108;-70
2023/04/07 08:21:26;;;;;;;12.35;10.18;;;;;;;7.75;38.55;99101.34;5085187;28;20040;-70
2023/04/07 08:23:55;;;;;;;11.77;8.80;;;;;;;7.77;38.66;99203.25;5085187;28;20060;-70
2023/04/07 08:26:22;;;;;;;12.55;9.27;;;;;;;7.80;38.46;99094.94;5085125;28;20330;-70
2023/04/07 08:28:50;;;;;;;12.75;9.23;;;;;;;7.83;38.58;99092.16;5084603;28;20086;-70
2023/04/07 08:31:17;;;;;;;12.20;8.65;;;;;;;7.84;38.43;99085.94;5088661;28;20056;-70
2023/04/07 08:33:43;;;;;;;11.25;10.02;;;;;;;7.86;38.59;99084.09;5087743;28;20119;-70
2023/04/07 08:36:10;;;;;;;11.57;8.75;;;;;;;7.65;38.52;99037.63;5088554;28;20090;-70
2023/04/07 08:38:36;;;;;;;11.90;9.40;;;;;;;7.92;38.66;99085.56;5088398;28;20046;-70
2023/04/07 08:41:08;;;;;;;14.88;9.63;;;;;;;7.94;38.75;99074.00;5088313;28;20094;-69
2023/04/07 08:43:36;;;;;;;10.57;9.23;;;;;;;7.77;38.60;99052.00;5087308;28;20094;-69
2023/04/07 08:46:03;;;;;;;10.82;8.95;;;;;;;8.01;38.51;99085.97;5088502;28;20055;-69
2023/04/07 08:48:33;;;;;;;11.57;9.07;;;;;;;8.04;38.30;99079.69;5088457;28;20295;-69
2023/04/07 08:51:04;;;;;;;10.60;8.88;;;;;;;8.08;38.35;99091.81;5088836;28;20048;-69
2023/04/07 08:53:37;;;;;;;12.90;9.18;;;;;;;7.96;38.48;99053.69;5088532;28;20055;-69
2023/04/07 08:56:07;;;;;;;15.93;9.48;;;;;;;7.16;38.22;98910.78;5087748;28;20327;-69
2023/04/07 08:58:36;;;;;;;12.50;9.60;;;;;;;8.21;38.12;99077.06;5088287;28;20052;-69
2023/04/07 09:01:05;;;;;;;10.00;8.77;;;;;;;7.65;38.11;98974.34;5087898;28;20068;-69
2023/04/07 09:03:32;;;;;;;10.27;7.82;;;;;;;8.26;37.84;99077.69;5088540;28;20060;-70
2023/04/07 09:06:01;;;;;;;9.88;8.85;;;;;;;7.74;38.05;98981.78;5087569;28;20209;-69
2023/04/07 09:08:27;;;;;;;9.57;8.38;;;;;;;7.95;37.89;99006.25;5088662;28;20086;-70
2023/04/07 09:10:55;;;;;;;10.88;7.95;;;;;;;8.38;37.84;99070.94;5087335;28;20093;-70
2023/04/07 09:13:24;;;;;;;11.35;9.30;;;;;;;7.32;37.66;98884.53;5088149;28;20296;-70
2023/04/07 09:15:51;;;;;;;12.30;10.07;;;;;;;8.44;37.72;99070.63;5087016;28;20032;-70
2023/04/07 09:18:18;;;;;;;11.77;8.95;;;;;;;8.25;37.87;99028.47;5088342;28;20041;-70
2023/04/07 09:20:58;;;;;;;10.27;8.40;;;;;;;8.54;38.00;99066.59;5087954;28;20339;-70
2023/04/07 09:23:29;;;;;;;11.45;8.98;;;;;;;7.99;37.71;98961.16;5087524;28;20040;-70
2023/04/07 09:25:58;;;;;;;11.75;9.18;;;;;;;8.62;37.71;99067.03;5087987;28;20119;-70
2023/04/07 09:28:38;;;;;;;10.77;9.20;;;;;;;8.66;38.04;99060.66;5087557;28;20044;-69
2023/04/07 09:31:05;;;;;;;10.93;9.02;;;;;;;8.31;37.77;98995.63;5086992;28;20051;-70
2023/04/07 09:33:34;;;;;;;11.80;9.82;;;;;;;8.71;37.66;99057.78;5087707;28;20043;-70
2023/04/07 09:36:01;;;;;;;12.27;9.60;;;;;;;8.73;37.62;99060.34;5087587;28;20107;-70
2023/04/07 09:38:34;;;;;;;10.07;8.40;;;;;;;8.75;37.84;99056.69;5087557;28;20304;-70
2023/04/07 09:41:09;;;;;;;10.75;9.35;;;;;;;8.77;37.68;99064.53;5087403;28;20043;-70
2023/04/07 09:43:40;;;;;;;11.65;8.73;;;;;;;8.76;37.67;99066.31;5087171;28;20033;-70
2023/04/07 09:46:11;;;;;;;12.07;9.40;;;;;;;8.76;37.68;99061.03;5087197;28;20048;-70
2023/04/07 09:48:38;;;;;;;11.43;9.15;;;;;;;8.76;37.71;99066.31;5087459;28;20044;-70
2023/04/07 09:51:07;;;;;;;13.15;9.80;;;;;;;8.76;37.69;99061.03;5086884;28;20036;-70
2023/04/07 09:53:47;;;;;;;13.52;9.52;;;;;;;8.76;37.91;99055.75;5086891;28;20043;-70
2023/04/07 09:56:16;;;;;;;10.68;9.18;;;;;;;8.78;37.88;99050.38;5086807;28;20106;-70
2023/04/07 09:58:46;;;;;;;11.02;9.57;;;;;;;8.64;37.67;99025.56;5087270;28;20223;-69
2023/04/07 10:01:15;;;;;;;10.23;9.00;;;;;;;7.55;37.66;98854.41;5086568;28;20048;-70
2023/04/07 10:03:43;;;;;;;11.70;9.32;;;;;;;7.56;37.74;98851.69;5087235;28;20051;-70
2023/04/07 10:06:10;;;;;;;13.48;11.07;;;;;;;8.40;37.70;98981.94;5086639;28;20290;-70
2023/04/07 10:08:40;;;;;;;13.80;11.48;;;;;;;8.22;37.60;98962.63;5086644;28;20043;-70
2023/04/07 10:11:07;;;;;;;10.18;8.43;;;;;;;8.06;37.46;98942.38;5087048;28;20048;-70
2023/04/07 10:13:35;;;;;;;11.60;9.18;;;;;;;8.84;37.65;99050.94;5086573;28;20032;-70
2023/04/07 10:16:06;;;;;;;11.55;8.90;;;;;;;8.88;37.46;99043.69;5086849;28;20044;-71
2023/04/07 10:18:34;;;;;;;13.30;8.88;;;;;;;8.89;37.39;99048.88;5086619;28;20064;-70
2023/04/07 10:21:02;;;;;;;10.70;9.18;;;;;;;8.57;37.38;98981.91;5086950;28;20082;-69
2023/04/07 10:23:39;;;;;;;9.65;8.52;;;;;;;8.95;37.25;99039.78;5086286;28;20044;-69
2023/04/07 10:26:08;;;;;;;11.20;8.80;;;;;;;8.98;37.29;99050.19;5086470;28;20200;-69
2023/04/07 10:28:38;;;;;;;11.88;8.98;;;;;;;9.00;37.28;99035.97;5086333;28;20047;-69
2023/04/07 10:31:07;;;;;;;12.50;10.43;;;;;;;9.04;37.07;99034.00;5086676;28;20308;-70
2023/04/07 10:33:52;;;;;;;12.05;9.43;;;;;;;9.08;36.59;99038.19;5086540;28;20047;-69
2023/04/07 10:36:20;;;;;;;13.07;11.70;;;;;;;9.06;37.00;99033.91;5086468;28;20032;-69
2023/04/07 10:39:20;;;;;;;15.82;10.75;;;;;;;9.06;36.63;99040.06;5086748;28;20119;-69
2023/04/07 10:41:47;;;;;;;10.77;8.63;;;;;;;9.06;36.88;99029.47;5085460;28;20300;-70
2023/04/07 10:44:57;;;;;;;11.93;9.70;;;;;;;8.92;36.59;99003.78;5086011;28;20056;-69
2023/04/07 10:47:25;;;;;;;12.48;8.95;;;;;;;9.11;36.74;99029.25;5085052;28;20051;-71
2023/04/07 10:50:25;;;;;;;12.15;9.35;;;;;;;8.91;36.12;98998.59;5086105;28;20032;-71
2023/04/07 10:53:07;;;;;;;12.05;9.38;;;;;;;7.81;35.90;98822.28;5024819;28;20244;-71
2023/04/07 10:55:37;;;;;;;12.73;8.48;;;;;;;9.08;36.41;99032.03;5024913;28;20056;-70
2023/04/07 10:58:18;;;;;;;11.75;9.43;;;;;;;9.08;36.30;99024.97;5051793;28;20067;-70
2023/04/07 11:01:19;;;;;;;11.40;9.93;;;;;;;9.11;36.19;99023.94;5085893;28;20048;-70
2023/04/07 11:04:01;;;;;;;11.73;9.30;;;;;;;8.90;36.29;98994.25;5085725;28;20166;-70
2023/04/07 11:06:27;;;;;;;13.85;8.98;;;;;;;9.10;36.40;99025.75;5084666;28;20090;-70
2023/04/07 11:08:54;;;;;;;12.02;9.65;;;;;;;9.10;36.42;99023.09;5086131;28;20051;-70
2023/04/07 11:11:37;;;;;;;13.52;9.65;;;;;;;9.09;36.13;99024.03;5085973;28;20090;-70
2023/04/07 11:14:04;;;;;;;11.02;9.63;;;;;;;8.86;36.45;98982.13;5085844;28;20058;-70
2023/04/07 11:16:37;;;;;;;13.25;10.32;;;;;;;9.08;36.09;99019.69;5085454;28;20277;-70
2023/04/07 11:19:05;;;;;;;13.55;10.38;;;;;;;9.09;36.19;99013.47;5085628;28;20048;-70
2023/04/07 11:21:32;;;;;;;13.15;10.25;;;;;;;9.08;36.22;99017.03;5085786;28;20041;-70
2023/04/07 11:23:59;;;;;;;13.48;9.77;;;;;;;9.10;36.15;99020.44;5084625;28;20032;-70
2023/04/07 11:26:26;;;;;;;13.38;9.57;;;;;;;9.11;36.29;99021.31;5085750;28;20044;-70
2023/04/07 11:28:54;;;;;;;14.27;11.70;;;;;;;8.92;36.26;98993.22;5085439;28;20036;-70
2023/04/07 11:31:23;;;;;;;13.02;10.60;;;;;;;9.12;36.50;99017.72;5085884;28;20104;-70
2023/04/07 11:33:53;;;;;;;12.27;9.95;;;;;;;9.11;36.62;99011.59;5085223;28;20044;-71
2023/04/07 11:36:28;;;;;;;11.30;10.10;;;;;;;9.11;36.40;99029.25;5085946;28;20107;-70
2023/04/07 11:38:56;;;;;;;14.05;11.05;;;;;;;9.10;36.56;99011.66;5085688;28;20040;-70
2023/04/07 11:41:23;;;;;;;12.18;10.98;;;;;;;9.13;36.71;99020.28;5085101;28;20048;-70